Time;durP1;ratioP1;P1;durP2;ratioP2;P2;SDS_P1;SDS_P2;PMS_P1;PMS_P2;Temp;Humidity;BMP_temperature;BMP_pressure;BME280_temperature;BME280_humidity;BME280_pressure;Samples;Min_cycle;Max_cycle;Signal;HPM_P1;HPM_P2
2021/03/12 00:00:54;;;;;;;0.83;0.70;;;8.00;75.00;;;;;;5019871;28;21038;-40
2021/03/12 00:03:30;;;;;;;2.00;0.60;;;8.00;75.20;;;;;;5023694;28;20473;-40
2021/03/12 00:06:00;;;;;;;5.43;1.20;;;8.00;74.60;;;;;;5021625;28;20467;-40
2021/03/12 00:08:33;;;;;;;2.57;0.93;;;8.00;74.20;;;;;;5041515;28;20555;-40
2021/03/12 00:10:59;;;;;;;1.50;0.87;;;8.00;74.20;;;;;;5022473;28;20896;-40
2021/03/12 00:13:28;;;;;;;4.10;0.83;;;7.90;74.90;;;;;;5022538;28;20448;-40
2021/03/12 00:15:58;;;;;;;4.10;0.77;;;7.90;74.20;;;;;;5025399;28;20835;-40
2021/03/12 00:18:40;;;;;;;1.67;0.93;;;7.90;74.70;;;;;;5006972;28;20455;-40
2021/03/12 00:21:08;;;;;;;2.23;0.70;;;7.90;74.50;;;;;;5021185;28;20525;-40
2021/03/12 00:23:35;;;;;;;2.87;1.10;;;7.90;74.50;;;;;;5006852;28;20495;-40
2021/03/12 00:26:02;;;;;;;2.10;1.23;;;7.90;74.10;;;;;;5003289;28;20545;-40
2021/03/12 00:28:28;;;;;;;2.30;1.00;;;7.90;74.70;;;;;;5021154;28;20464;-40
2021/03/12 00:30:58;;;;;;;2.03;1.17;;;7.80;74.50;;;;;;5021227;28;20521;-40
2021/03/12 00:33:26;;;;;;;1.10;0.93;;;7.80;74.90;;;;;;5023309;28;21228;-40
2021/03/12 00:35:53;;;;;;;3.00;1.13;;;7.80;74.70;;;;;;4988501;28;20929;-40
2021/03/12 00:38:20;;;;;;;1.27;0.90;;;7.80;73.90;;;;;;5020826;28;20509;-41
2021/03/12 00:40:52;;;;;;;2.73;1.50;;;7.80;74.10;;;;;;5022068;28;20467;-40
2021/03/12 00:43:19;;;;;;;2.50;0.80;;;7.70;74.10;;;;;;5024360;28;20574;-41
2021/03/12 00:45:48;;;;;;;2.50;1.17;;;7.80;74.20;;;;;;5023390;28;20477;-40
2021/03/12 00:48:15;;;;;;;6.20;1.40;;;7.80;73.90;;;;;;5005263;28;20494;-40
2021/03/12 00:50:42;;;;;;;1.90;1.00;;;7.80;74.00;;;;;;5021120;28;20497;-41
2021/03/12 00:53:08;;;;;;;4.57;0.83;;;7.80;74.30;;;;;;5023574;28;20499;-40
2021/03/12 00:55:35;;;;;;;5.40;1.07;;;7.80;73.80;;;;;;5024756;28;20501;-41
2021/03/12 00:58:02;;;;;;;4.90;0.97;;;7.80;73.10;;;;;;5025086;28;20952;-40
2021/03/12 01:00:30;;;;;;;2.03;1.20;;;7.80;73.20;;;;;;5007817;28;20566;-41
2021/03/12 01:02:58;;;;;;;2.40;0.77;;;7.80;72.50;;;;;;5006524;28;20470;-40
2021/03/12 01:05:26;;;;;;;0.93;0.80;;;7.80;72.40;;;;;;5020674;28;20542;-40
2021/03/12 01:07:52;;;;;;;4.77;1.03;;;7.80;72.20;;;;;;5007160;28;20901;-41
2021/03/12 01:10:20;;;;;;;1.70;1.07;;;7.80;72.00;;;;;;5022150;28;20645;-41
2021/03/12 01:12:46;;;;;;;3.23;1.80;;;7.80;71.60;;;;;;5024940;28;20645;-41
2021/03/12 01:15:16;;;;;;;6.20;2.30;;;7.90;71.60;;;;;;5011789;28;20957;-40
2021/03/12 01:17:43;;;;;;;3.97;2.90;;;7.90;71.90;;;;;;5028407;28;20572;-41
2021/03/12 01:20:17;;;;;;;3.57;1.07;;;7.90;71.80;;;;;;5028714;28;20515;-41
2021/03/12 01:22:45;;;;;;;2.23;1.00;;;7.90;72.30;;;;;;5027088;28;20460;-41
2021/03/12 01:25:14;;;;;;;4.27;0.67;;;7.90;72.00;;;;;;5030386;28;20542;-41
2021/03/12 01:27:40;;;;;;;3.90;0.77;;;7.90;71.10;;;;;;5030109;28;20505;-40
2021/03/12 01:30:20;;;;;;;3.30;1.13;;;7.90;70.80;;;;;;5028402;28;20547;-41
2021/03/12 01:32:47;;;;;;;1.50;0.97;;;7.90;70.90;;;;;;5043339;28;20579;-41
2021/03/12 01:35:17;;;;;;;2.10;0.73;;;7.90;70.70;;;;;;5012658;28;20956;-40
2021/03/12 01:37:44;;;;;;;1.97;0.90;;;7.90;70.90;;;;;;5028579;28;20976;-40
2021/03/12 01:40:18;;;;;;;3.40;0.90;;;7.80;70.30;;;;;;5031174;28;20546;-41
2021/03/12 01:42:53;;;;;;;1.47;0.80;;;7.80;69.70;;;;;;5029504;28;21022;-40
2021/03/12 01:45:23;;;;;;;2.97;1.00;;;7.70;69.40;;;;;;5032625;28;20545;-41
2021/03/12 01:47:51;;;;;;;3.30;1.23;;;7.70;68.70;;;;;;5028555;28;20526;-41
2021/03/12 01:50:19;;;;;;;2.87;1.07;;;7.60;69.10;;;;;;5013023;28;20486;-41
2021/03/12 01:52:46;;;;;;;3.10;1.40;;;7.60;68.50;;;;;;5029117;28;20569;-40
2021/03/12 01:55:27;;;;;;;4.00;0.87;;;7.60;68.50;;;;;;5031142;28;20952;-40
2021/03/12 01:57:54;;;;;;;1.70;0.60;;;7.60;68.00;;;;;;5030245;28;20882;-40
2021/03/12 02:00:21;;;;;;;3.33;0.93;;;7.60;67.80;;;;;;5010867;28;20499;-40
2021/03/12 02:02:48;;;;;;;1.53;0.80;;;7.60;68.50;;;;;;5013828;28;21055;-41
2021/03/12 02:05:15;;;;;;;6.27;1.10;;;7.60;68.20;;;;;;5009899;28;20470;-40
2021/03/12 02:07:43;;;;;;;3.23;0.80;;;7.60;68.20;;;;;;5030538;28;20458;-41
2021/03/12 02:10:13;;;;;;;2.13;1.00;;;7.60;68.70;;;;;;5028625;28;20475;-40
2021/03/12 02:13:02;;;;;;;3.37;0.60;;;7.60;68.60;;;;;;5025543;28;20490;-41
2021/03/12 02:16:01;;;;;;;5.00;1.17;;;7.50;68.40;;;;;;5039468;28;20573;-41
2021/03/12 02:18:36;;;;;;;2.77;0.87;;;7.50;68.30;;;;;;5030314;28;20467;-41
2021/03/12 02:21:37;;;;;;;2.93;0.90;;;7.40;68.70;;;;;;5026388;28;20463;-41
2021/03/12 02:24:13;;;;;;;2.07;0.63;;;7.40;69.00;;;;;;4999771;28;20486;-40
2021/03/12 02:26:43;;;;;;;2.43;0.80;;;7.40;69.20;;;;;;5043162;28;20576;-41
2021/03/12 02:29:19;;;;;;;1.97;0.83;;;7.40;69.50;;;;;;5026479;28;20503;-41
2021/03/12 02:31:53;;;;;;;2.40;1.27;;;7.40;69.10;;;;;;5026697;28;20577;-41
2021/03/12 02:34:23;;;;;;;6.17;1.70;;;7.40;69.20;;;;;;5028323;28;20547;-41
2021/03/12 02:36:57;;;;;;;2.40;0.77;;;7.50;69.30;;;;;;5024115;28;20556;-41
2021/03/12 02:39:31;;;;;;;2.17;1.17;;;7.50;68.60;;;;;;5024147;28;20465;-41
2021/03/12 02:42:00;;;;;;;2.33;0.80;;;7.50;68.80;;;;;;5023793;28;20503;-41
2021/03/12 02:44:28;;;;;;;4.10;1.30;;;7.50;68.50;;;;;;5027918;28;20527;-41
2021/03/12 02:47:10;;;;;;;2.10;0.93;;;7.50;68.80;;;;;;5025643;28;20858;-41
2021/03/12 02:49:37;;;;;;;1.73;0.80;;;7.50;68.40;;;;;;5024962;28;20455;-41
2021/03/12 02:52:05;;;;;;;3.97;0.87;;;7.60;68.30;;;;;;5008106;28;20571;-41
2021/03/12 02:54:32;;;;;;;4.73;0.93;;;7.60;68.80;;;;;;5008910;28;20474;-40
2021/03/12 02:56:59;;;;;;;10.03;0.90;;;7.50;68.00;;;;;;5007901;28;20479;-40
2021/03/12 02:59:32;;;;;;;2.40;1.23;;;7.50;68.60;;;;;;5024734;28;20482;-41
2021/03/12 03:01:59;;;;;;;4.90;1.20;;;7.50;68.30;;;;;;4991130;28;20952;-41
2021/03/12 03:04:30;;;;;;;3.67;0.90;;;7.50;68.40;;;;;;5029035;28;20467;-41
2021/03/12 03:06:58;;;;;;;4.33;0.87;;;7.50;68.70;;;;;;5007933;28;20542;-41
2021/03/12 03:09:26;;;;;;;2.47;0.80;;;7.50;68.90;;;;;;5004947;28;20505;-40
2021/03/12 03:11:53;;;;;;;2.37;0.83;;;7.50;69.00;;;;;;5042569;28;20571;-41
2021/03/12 03:14:19;;;;;;;1.73;0.63;;;7.50;69.20;;;;;;5009365;28;20932;-41
2021/03/12 03:16:48;;;;;;;6.60;1.00;;;7.60;68.50;;;;;;4989909;28;21023;-41
2021/03/12 03:19:19;;;;;;;3.23;1.53;;;7.50;69.10;;;;;;5007256;28;20571;-41
2021/03/12 03:21:47;;;;;;;10.43;4.10;;;7.60;69.20;;;;;;5021437;28;20534;-41
2021/03/12 03:24:15;;;;;;;5.43;2.10;;;7.60;69.20;;;;;;5008920;28;21039;-41
2021/03/12 03:26:42;;;;;;;2.67;0.70;;;7.60;69.30;;;;;;5023961;28;20534;-41
2021/03/12 03:29:08;;;;;;;2.40;1.07;;;7.60;68.50;;;;;;5023911;28;20543;-41
2021/03/12 03:31:34;;;;;;;6.87;1.53;;;7.50;68.80;;;;;;5003962;28;20494;-40
2021/03/12 03:34:01;;;;;;;2.33;0.77;;;7.50;67.80;;;;;;4991000;28;20453;-41
2021/03/12 03:36:30;;;;;;;1.80;0.93;;;7.50;69.10;;;;;;5025320;28;20483;-41
2021/03/12 03:38:56;;;;;;;2.30;1.23;;;7.40;68.60;;;;;;5026568;28;20714;-40
2021/03/12 03:41:24;;;;;;;2.53;0.80;;;7.50;68.50;;;;;;5025241;28;20867;-41
2021/03/12 03:43:53;;;;;;;2.13;1.27;;;7.40;68.90;;;;;;5023089;28;20566;-40
2021/03/12 03:46:20;;;;;;;2.50;1.00;;;7.40;68.90;;;;;;5020813;28;21023;-41
2021/03/12 03:48:48;;;;;;;2.70;1.10;;;7.40;69.20;;;;;;5024569;28;20551;-41
2021/03/12 03:51:15;;;;;;;1.77;1.40;;;7.30;68.80;;;;;;5005741;28;20498;-41
2021/03/12 03:53:44;;;;;;;5.00;1.10;;;7.40;68.60;;;;;;5008007;28;20492;-41
2021/03/12 03:56:14;;;;;;;5.50;1.03;;;7.30;68.80;;;;;;5022934;28;20491;-41
2021/03/12 03:58:45;;;;;;;1.80;1.03;;;7.30;67.70;;;;;;5027002;28;20486;-41
2021/03/12 04:01:13;;;;;;;3.17;1.10;;;7.30;68.80;;;;;;5020940;28;20495;-42
2021/03/12 04:03:41;;;;;;;8.23;1.63;;;7.30;68.70;;;;;;5007192;28;20554;-42
2021/03/12 04:06:09;;;;;;;1.90;1.03;;;7.30;68.30;;;;;;5022969;28;20467;-42
2021/03/12 04:08:36;;;;;;;2.30;1.03;;;7.30;67.60;;;;;;5005103;28;20495;-42
2021/03/12 04:11:03;;;;;;;5.13;1.70;;;7.30;68.10;;;;;;5004701;28;20488;-42
2021/03/12 04:13:30;;;;;;;1.13;1.00;;;7.20;67.60;;;;;;4997297;28;20518;-42
2021/03/12 04:15:57;;;;;;;3.40;1.20;;;7.20;67.50;;;;;;5024207;28;20951;-42
2021/03/12 04:18:25;;;;;;;6.03;1.17;;;7.20;67.50;;;;;;5021806;28;20456;-42
2021/03/12 04:20:52;;;;;;;1.63;0.90;;;7.10;67.40;;;;;;5023580;28;20544;-42
2021/03/12 04:23:22;;;;;;;3.13;1.07;;;7.00;67.00;;;;;;5022178;28;20626;-42
2021/03/12 04:25:49;;;;;;;1.37;1.27;;;7.00;68.00;;;;;;5025124;28;20445;-42
2021/03/12 04:28:15;;;;;;;2.93;1.60;;;6.90;67.10;;;;;;5007427;28;20950;-42
2021/03/12 04:30:43;;;;;;;1.80;1.13;;;6.90;68.00;;;;;;5006470;28;20487;-42
2021/03/12 04:33:10;;;;;;;1.70;0.80;;;6.80;68.30;;;;;;5023183;28;20518;-42
2021/03/12 04:35:37;;;;;;;2.80;1.20;;;6.80;68.60;;;;;;5022273;28;21017;-42
2021/03/12 04:38:07;;;;;;;1.80;1.00;;;6.80;69.40;;;;;;5025878;28;20542;-42
2021/03/12 04:40:33;;;;;;;3.43;1.00;;;6.80;69.50;;;;;;4990545;28;20455;-42
2021/03/12 04:43:08;;;;;;;2.47;1.27;;;6.80;69.70;;;;;;5023208;28;20534;-42
2021/03/12 04:45:36;;;;;;;5.30;1.30;;;6.80;69.60;;;;;;5008434;28;20498;-42
2021/03/12 04:48:07;;;;;;;2.60;1.10;;;6.80;70.20;;;;;;5021977;28;20953;-42
2021/03/12 04:50:34;;;;;;;3.73;1.27;;;6.80;70.10;;;;;;5003797;28;20550;-42
2021/03/12 04:53:01;;;;;;;6.20;1.50;;;6.80;70.60;;;;;;5005339;28;20579;-42
2021/03/12 04:55:28;;;;;;;4.50;0.97;;;6.70;70.60;;;;;;4991233;28;20495;-42
2021/03/12 04:57:55;;;;;;;2.63;1.53;;;6.70;70.90;;;;;;5023798;28;20467;-42
2021/03/12 05:00:22;;;;;;;4.03;1.20;;;6.60;71.60;;;;;;5005359;28;20546;-42
2021/03/12 05:02:49;;;;;;;5.80;1.37;;;6.70;71.80;;;;;;5025613;28;20513;-42
2021/03/12 05:05:16;;;;;;;6.13;1.17;;;6.60;72.10;;;;;;5024027;28;20979;-42
2021/03/12 05:07:51;;;;;;;1.57;1.13;;;6.70;72.40;;;;;;5026985;28;20482;-42
2021/03/12 05:10:18;;;;;;;2.63;1.43;;;6.70;72.40;;;;;;5020977;28;20495;-42
2021/03/12 05:12:44;;;;;;;2.83;1.33;;;6.70;72.70;;;;;;5001288;28;20491;-42
2021/03/12 05:15:30;;;;;;;2.63;1.47;;;6.70;72.80;;;;;;5026924;28;20474;-41
2021/03/12 05:17:56;;;;;;;3.13;1.40;;;6.70;72.80;;;;;;5005878;28;20887;-42
2021/03/12 05:20:27;;;;;;;3.63;1.80;;;6.70;73.00;;;;;;5023373;28;20470;-42
2021/03/12 05:22:53;;;;;;;2.87;1.10;;;6.70;73.00;;;;;;5005112;28;20796;-42
2021/03/12 05:25:20;;;;;;;5.33;1.60;;;6.70;73.20;;;;;;5002745;28;21022;-42
2021/03/12 05:27:46;;;;;;;9.90;1.90;;;6.70;73.20;;;;;;5004711;28;20514;-42
2021/03/12 05:30:12;;;;;;;2.03;1.67;;;6.70;73.20;;;;;;5023241;28;20456;-42
2021/03/12 05:32:40;;;;;;;5.23;1.93;;;6.70;73.40;;;;;;5025018;28;20579;-42
2021/03/12 05:35:14;;;;;;;6.27;1.60;;;6.70;73.40;;;;;;5026884;28;20517;-42
2021/03/12 05:37:40;;;;;;;5.90;1.90;;;6.80;73.50;;;;;;5042535;28;20872;-42
2021/03/12 05:40:07;;;;;;;4.13;1.80;;;6.70;73.20;;;;;;4989717;28;20502;-42
2021/03/12 05:42:34;;;;;;;3.80;1.70;;;6.70;73.20;;;;;;5008572;28;20467;-42
2021/03/12 05:45:01;;;;;;;4.30;1.87;;;6.70;73.50;;;;;;5023098;28;20590;-42
2021/03/12 05:47:29;;;;;;;5.90;2.00;;;6.70;73.00;;;;;;5003824;28;21191;-42
2021/03/12 05:49:58;;;;;;;5.83;1.23;;;6.70;73.10;;;;;;5024018;28;20463;-42
2021/03/12 05:52:25;;;;;;;4.20;1.60;;;6.70;73.20;;;;;;5002658;28;20511;-42
2021/03/12 05:54:53;;;;;;;3.43;1.87;;;6.70;73.20;;;;;;5025153;28;20519;-42
2021/03/12 05:57:24;;;;;;;3.07;1.60;;;6.70;73.50;;;;;;5021981;28;20652;-42
2021/03/12 05:59:51;;;;;;;5.13;1.87;;;6.70;73.20;;;;;;5021288;28;20471;-42
2021/03/12 06:02:18;;;;;;;5.73;1.70;;;6.70;73.50;;;;;;5008691;28;20444;-42
2021/03/12 06:04:45;;;;;;;6.80;1.80;;;6.70;73.10;;;;;;5026784;28;20558;-42
2021/03/12 06:07:16;;;;;;;4.33;1.93;;;6.70;73.00;;;;;;5008859;28;20471;-42
2021/03/12 06:09:46;;;;;;;4.53;1.20;;;6.80;72.50;;;;;;5027490;28;20829;-42
2021/03/12 06:12:13;;;;;;;4.67;1.73;;;6.70;72.30;;;;;;5026664;28;20863;-42
2021/03/12 06:14:49;;;;;;;2.50;1.20;;;6.70;72.40;;;;;;5028617;28;20502;-42
2021/03/12 06:17:39;;;;;;;5.13;2.10;;;6.70;72.50;;;;;;5023259;28;20560;-42
2021/03/12 06:20:17;;;;;;;18.80;7.17;;;6.70;72.60;;;;;;5039506;28;20447;-42
2021/03/12 06:22:54;;;;;;;5.40;2.13;;;6.70;72.80;;;;;;5007683;28;20888;-42
2021/03/12 06:25:23;;;;;;;4.87;1.90;;;6.80;72.70;;;;;;4993102;28;20568;-42
2021/03/12 06:27:54;;;;;;;3.70;1.30;;;6.80;72.90;;;;;;5026682;28;20820;-42
2021/03/12 06:30:24;;;;;;;7.23;1.70;;;6.80;72.70;;;;;;5026339;28;21306;-42
2021/03/12 06:32:55;;;;;;;3.10;1.40;;;6.80;72.90;;;;;;5012648;28;20577;-42
2021/03/12 06:35:27;;;;;;;8.67;2.53;;;6.90;72.80;;;;;;5027075;28;20663;-42
2021/03/12 06:37:53;;;;;;;1.70;1.60;;;6.90;72.90;;;;;;5025950;28;20538;-42
2021/03/12 06:40:22;;;;;;;5.80;1.40;;;6.90;72.90;;;;;;5006337;28;20729;-42
2021/03/12 06:43:06;;;;;;;7.83;1.30;;;6.90;72.60;;;;;;5026392;28;20509;-42
2021/03/12 06:45:51;;;;;;;4.97;1.57;;;7.00;72.60;;;;;;5025482;28;20629;-42
2021/03/12 06:48:44;;;;;;;5.43;1.50;;;7.00;73.00;;;;;;5023644;28;20857;-42
2021/03/12 06:51:11;;;;;;;6.13;1.77;;;7.00;73.00;;;;;;5022472;28;20831;-42
2021/03/12 06:53:45;;;;;;;10.53;2.03;;;7.00;73.00;;;;;;5024683;28;20535;-42
2021/03/12 06:56:13;;;;;;;5.00;2.23;;;7.00;73.30;;;;;;5025905;28;20448;-42
2021/03/12 06:58:58;;;;;;;5.07;1.63;;;7.00;73.40;;;;;;5006564;28;20893;-42
2021/03/12 07:01:24;;;;;;;8.43;1.37;;;7.10;73.50;;;;;;5024933;28;20486;-42
2021/03/12 07:04:10;;;;;;;6.20;1.70;;;7.10;73.70;;;;;;5027340;28;20466;-42
2021/03/12 07:06:50;;;;;;;5.73;1.90;;;7.10;73.90;;;;;;5027943;28;21425;-42
2021/03/12 07:09:20;;;;;;;6.07;2.40;;;7.10;73.80;;;;;;5022325;28;20539;-42
2021/03/12 07:11:55;;;;;;;3.20;1.30;;;7.10;73.80;;;;;;5027036;28;20576;-42
2021/03/12 07:14:22;;;;;;;5.20;1.53;;;7.10;73.80;;;;;;5008196;28;20479;-42
2021/03/12 07:17:00;;;;;;;6.10;2.37;;;7.10;73.40;;;;;;5026845;28;20538;-42
2021/03/12 07:19:27;;;;;;;5.30;1.43;;;7.20;73.80;;;;;;5027284;28;20468;-42
2021/03/12 07:22:00;;;;;;;3.20;1.30;;;7.20;73.60;;;;;;5025102;28;20500;-42
2021/03/12 07:24:28;;;;;;;5.30;2.37;;;7.10;73.80;;;;;;5040617;28;20471;-42
2021/03/12 07:26:59;;;;;;;4.10;1.87;;;7.20;73.90;;;;;;5003825;28;20499;-42
2021/03/12 07:29:28;;;;;;;3.20;2.03;;;7.20;73.90;;;;;;5023890;28;21003;-42
2021/03/12 07:31:59;;;;;;;2.80;1.60;;;7.20;73.50;;;;;;5038758;28;21185;-42
2021/03/12 07:34:31;;;;;;;4.60;1.90;;;7.30;73.30;;;;;;5025688;28;20456;-42
2021/03/12 07:36:59;;;;;;;8.60;1.80;;;7.30;73.30;;;;;;5025147;28;20852;-42
2021/03/12 07:39:42;;;;;;;5.70;1.60;;;7.40;72.60;;;;;;5004290;28;20515;-42
2021/03/12 07:42:10;;;;;;;5.27;1.73;;;7.50;73.10;;;;;;5004823;28;20463;-42
2021/03/12 07:44:47;;;;;;;4.17;1.40;;;7.60;72.20;;;;;;5025113;28;20475;-42
2021/03/12 07:47:24;;;;;;;7.33;3.10;;;7.70;71.90;;;;;;5024548;28;20489;-42
2021/03/12 07:49:54;;;;;;;6.33;1.80;;;7.80;70.90;;;;;;5025832;28;20474;-42
2021/03/12 07:52:48;;;;;;;6.17;2.30;;;7.90;70.20;;;;;;5022750;28;20478;-42
2021/03/12 07:55:34;;;;;;;2.57;1.37;;;8.10;69.20;;;;;;5006287;28;21019;-42
2021/03/12 07:58:06;;;;;;;3.83;1.70;;;8.20;69.20;;;;;;5027853;28;20459;-42
2021/03/12 08:00:52;;;;;;;4.97;1.73;;;8.30;68.50;;;;;;5007556;28;20541;-42
2021/03/12 08:03:40;;;;;;;4.63;1.57;;;8.50;67.10;;;;;;5042383;28;20459;-42
2021/03/12 08:06:21;;;;;;;4.90;1.77;;;8.60;67.50;;;;;;5028674;28;20543;-42
2021/03/12 08:08:48;;;;;;;5.00;1.60;;;8.70;67.40;;;;;;5040000;28;20483;-42
2021/03/12 08:11:29;;;;;;;6.00;1.30;;;8.70;66.30;;;;;;5010180;28;20547;-42
2021/03/12 08:14:08;;;;;;;4.80;1.53;;;8.70;66.40;;;;;;5027563;28;20530;-42
2021/03/12 08:16:37;;;;;;;5.90;1.60;;;8.70;67.30;;;;;;5026878;28;20518;-42
2021/03/12 08:19:29;;;;;;;3.00;1.20;;;8.80;66.30;;;;;;5010360;28;20451;-42
2021/03/12 08:21:58;;;;;;;3.57;1.60;;;8.90;67.20;;;;;;5025375;28;20478;-42
2021/03/12 08:24:58;;;;;;;9.30;1.83;;;9.10;66.30;;;;;;5026580;28;20550;-42
2021/03/12 08:27:41;;;;;;;8.23;1.97;;;9.30;65.30;;;;;;5017423;28;20555;-42
2021/03/12 08:30:10;;;;;;;5.10;2.10;;;9.50;65.10;;;;;;5024508;28;20502;-42
2021/03/12 08:32:43;;;;;;;4.63;1.27;;;9.50;65.40;;;;;;5004833;28;21084;-42
2021/03/12 08:35:35;;;;;;;4.47;1.73;;;9.50;65.00;;;;;;5003630;28;20540;-42
2021/03/12 08:38:10;;;;;;;5.57;2.80;;;9.50;65.30;;;;;;5023142;28;20463;-42
2021/03/12 08:40:52;;;;;;;3.50;1.50;;;9.60;65.50;;;;;;5023639;28;20458;-42
2021/03/12 08:43:20;;;;;;;4.40;1.87;;;9.60;64.30;;;;;;5023303;28;20534;-42
2021/03/12 08:45:50;;;;;;;6.00;1.97;;;9.50;65.10;;;;;;5025960;28;20988;-42
2021/03/12 08:48:28;;;;;;;2.97;1.67;;;9.50;64.90;;;;;;5027798;28;20521;-42
2021/03/12 08:51:05;;;;;;;2.97;1.80;;;9.50;65.10;;;;;;5020978;28;20483;-42
2021/03/12 08:53:38;;;;;;;6.27;2.10;;;9.50;64.30;;;;;;5021972;28;21064;-42
2021/03/12 08:56:19;;;;;;;5.80;2.83;;;9.50;64.30;;;;;;5026553;28;20447;-42
2021/03/12 08:58:45;;;;;;;7.20;2.67;;;9.40;65.10;;;;;;5022054;28;20822;-42
2021/03/12 09:01:20;;;;;;;6.53;2.90;;;9.40;66.00;;;;;;5024733;28;21023;-42
2021/03/12 09:03:51;;;;;;;10.90;2.60;;;9.50;66.30;;;;;;5018878;28;20464;-42
2021/03/12 09:06:20;;;;;;;4.37;2.50;;;9.70;65.40;;;;;;5026964;28;20995;-42
2021/03/12 09:09:05;;;;;;;7.33;1.90;;;9.90;64.70;;;;;;5008779;28;20455;-42
2021/03/12 09:11:36;;;;;;;2.97;2.20;;;10.00;64.00;;;;;;5025906;28;20483;-42
2021/03/12 09:14:03;;;;;;;4.90;1.47;;;10.20;63.90;;;;;;5022071;28;20447;-42
2021/03/12 09:16:31;;;;;;;3.80;1.80;;;10.30;62.20;;;;;;5039828;28;20463;-42
2021/03/12 09:19:01;;;;;;;11.93;1.50;;;10.50;61.40;;;;;;5010287;28;20744;-42
2021/03/12 09:21:29;;;;;;;4.70;1.50;;;10.60;60.70;;;;;;5024021;28;20880;-43
2021/03/12 09:24:01;;;;;;;5.23;1.40;;;10.80;60.20;;;;;;5022276;28;20463;-42
2021/03/12 09:26:32;;;;;;;5.00;1.47;;;10.80;58.90;;;;;;5006487;28;20502;-42
2021/03/12 09:29:08;;;;;;;7.43;1.77;;;10.80;58.60;;;;;;5022758;28;20932;-42
2021/03/12 09:31:40;;;;;;;2.93;1.00;;;10.70;59.20;;;;;;5025011;28;20519;-42
2021/03/12 09:34:13;;;;;;;2.40;1.07;;;10.70;59.50;;;;;;5024996;28;20789;-42
2021/03/12 09:36:48;;;;;;;4.77;1.53;;;10.80;59.40;;;;;;5030897;28;20479;-42
2021/03/12 09:39:20;;;;;;;6.20;2.17;;;10.90;59.30;;;;;;5011272;28;20508;-42
2021/03/12 09:42:07;;;;;;;2.40;1.60;;;11.00;58.40;;;;;;5044776;28;20517;-42
2021/03/12 09:44:34;;;;;;;5.73;1.83;;;10.90;57.80;;;;;;5026562;28;20825;-42
2021/03/12 09:47:06;;;;;;;7.13;1.30;;;10.90;58.40;;;;;;5027048;28;20448;-42
2021/03/12 09:49:37;;;;;;;3.93;1.57;;;10.90;58.30;;;;;;5010070;28;20486;-42
2021/03/12 09:52:13;;;;;;;4.20;1.83;;;10.80;59.10;;;;;;5025913;28;20483;-42
2021/03/12 09:54:43;;;;;;;6.70;1.70;;;10.60;59.40;;;;;;5025766;28;20500;-42
2021/03/12 09:57:11;;;;;;;2.47;1.30;;;10.50;59.40;;;;;;5026909;28;20498;-42
2021/03/12 09:59:39;;;;;;;5.97;1.83;;;10.40;59.10;;;;;;5021141;28;20510;-42
2021/03/12 10:02:25;;;;;;;3.23;1.40;;;10.30;60.20;;;;;;5028103;28;20451;-42
2021/03/12 10:05:11;;;;;;;6.80;1.73;;;10.20;61.00;;;;;;5010114;28;20459;-42
2021/03/12 10:07:47;;;;;;;4.33;1.80;;;10.20;61.60;;;;;;5025437;28;20454;-42
2021/03/12 10:10:18;;;;;;;8.63;1.87;;;10.30;61.50;;;;;;5010455;28;20454;-42
2021/03/12 10:12:46;;;;;;;9.13;2.43;;;10.50;60.30;;;;;;5026759;28;20506;-42
2021/03/12 10:15:37;;;;;;;7.07;2.10;;;10.60;60.60;;;;;;5028847;28;20463;-42
2021/03/12 10:18:22;;;;;;;4.03;1.70;;;10.70;58.90;;;;;;5042530;28;20850;-42
2021/03/12 10:21:09;;;;;;;7.80;1.70;;;10.80;58.40;;;;;;5024959;28;20478;-42
2021/03/12 10:23:36;;;;;;;9.63;1.93;;;10.70;58.40;;;;;;5006538;28;20955;-42
2021/03/12 10:26:07;;;;;;;7.30;2.10;;;10.70;57.70;;;;;;5025578;28;20546;-42
2021/03/12 10:28:33;;;;;;;3.37;1.10;;;10.70;57.30;;;;;;5027357;28;20463;-42
2021/03/12 10:31:00;;;;;;;7.80;2.07;;;10.70;56.70;;;;;;5007225;28;20458;-42
2021/03/12 10:33:30;;;;;;;3.47;1.33;;;10.60;57.60;;;;;;5029338;28;20491;-42
2021/03/12 10:36:04;;;;;;;6.13;1.87;;;10.60;59.20;;;;;;5026710;28;20450;-42
2021/03/12 10:38:33;;;;;;;8.03;1.23;;;10.70;58.10;;;;;;5030120;28;20663;-42
2021/03/12 10:41:22;;;;;;;4.77;1.70;;;10.80;58.30;;;;;;5038903;28;20459;-42
2021/03/12 10:44:02;;;;;;;7.23;1.30;;;11.30;56.80;;;;;;5027358;28;20844;-42
2021/03/12 10:46:31;;;;;;;1.83;1.03;;;11.70;55.40;;;;;;5027132;28;20447;-42
2021/03/12 10:48:59;;;;;;;5.53;2.40;;;11.80;55.00;;;;;;5021737;28;20496;-42
2021/03/12 10:51:36;;;;;;;11.83;1.97;;;11.70;55.80;;;;;;5025225;28;20976;-42
2021/03/12 10:54:03;;;;;;;3.53;1.00;;;11.60;55.80;;;;;;5023373;28;20463;-43
2021/03/12 10:56:29;;;;;;;3.60;1.40;;;11.50;57.60;;;;;;5021150;28;20554;-42
2021/03/12 10:59:06;;;;;;;5.43;1.60;;;11.30;58.90;;;;;;5028021;28;20456;-42
2021/03/12 11:01:38;;;;;;;8.43;2.20;;;11.20;58.90;;;;;;5028884;28;20452;-42
2021/03/12 11:04:09;;;;;;;7.63;1.87;;;11.00;60.70;;;;;;5025126;28;20527;-42
2021/03/12 11:06:37;;;;;;;3.23;1.27;;;11.20;59.80;;;;;;5006386;28;20458;-42
2021/03/12 11:09:13;;;;;;;6.43;1.63;;;11.40;57.40;;;;;;5009006;28;20455;-42
2021/03/12 11:11:43;;;;;;;2.17;1.17;;;11.60;57.80;;;;;;5024641;28;20459;-42
2021/03/12 11:14:10;;;;;;;4.17;1.77;;;11.70;56.90;;;;;;5028214;28;20458;-42
2021/03/12 11:16:37;;;;;;;5.07;1.73;;;11.70;57.10;;;;;;5021538;28;20451;-42
2021/03/12 11:19:04;;;;;;;7.43;2.07;;;11.70;55.30;;;;;;5010175;28;20451;-42
2021/03/12 11:21:32;;;;;;;5.23;1.67;;;11.70;55.40;;;;;;5040423;28;20456;-42
2021/03/12 11:23:59;;;;;;;3.47;1.57;;;11.60;54.10;;;;;;5022205;28;20546;-42
2021/03/12 11:26:25;;;;;;;9.93;1.70;;;11.50;54.20;;;;;;5025947;28;20578;-42
2021/03/12 11:28:51;;;;;;;3.80;1.33;;;11.50;54.30;;;;;;5028060;28;20999;-42
2021/03/12 11:31:25;;;;;;;6.13;2.20;;;11.50;54.70;;;;;;5023148;28;20460;-42
2021/03/12 11:33:52;;;;;;;2.90;1.30;;;11.40;55.60;;;;;;5023136;28;20467;-43
2021/03/12 11:36:19;;;;;;;3.33;1.40;;;11.40;55.30;;;;;;5006836;28;20943;-43
2021/03/12 11:38:45;;;;;;;3.83;1.30;;;11.40;55.10;;;;;;5005999;28;21066;-42
2021/03/12 11:41:11;;;;;;;4.93;1.60;;;11.40;54.20;;;;;;5005291;28;20518;-42
2021/03/12 11:43:41;;;;;;;5.60;1.60;;;11.40;54.50;;;;;;5005880;28;20579;-42
2021/03/12 11:46:08;;;;;;;7.63;2.63;;;11.50;53.90;;;;;;5023553;28;20467;-42
2021/03/12 11:48:35;;;;;;;6.47;2.63;;;11.50;55.70;;;;;;5006027;28;20520;-43
2021/03/12 11:51:05;;;;;;;3.87;1.80;;;11.40;56.90;;;;;;5024119;28;20482;-42
2021/03/12 11:53:31;;;;;;;6.07;1.90;;;11.10;61.40;;;;;;5020437;28;20751;-43
2021/03/12 11:55:58;;;;;;;4.90;2.13;;;10.80;67.50;;;;;;5019033;28;20519;-42
2021/03/12 11:58:24;;;;;;;4.30;2.00;;;10.40;69.40;;;;;;4993012;28;20443;-42
2021/03/12 12:00:51;;;;;;;5.00;1.90;;;10.10;71.40;;;;;;5007254;28;20471;-42
2021/03/12 12:03:17;;;;;;;3.20;2.00;;;10.10;73.90;;;;;;5023723;28;20968;-42
2021/03/12 12:05:45;;;;;;;7.80;2.17;;;10.20;73.90;;;;;;5004783;28;20569;-42
2021/03/12 12:08:12;;;;;;;3.57;1.73;;;10.40;71.70;;;;;;5022167;28;20453;-42
2021/03/12 12:10:38;;;;;;;2.93;1.10;;;10.50;71.50;;;;;;5026531;28;20487;-42
2021/03/12 12:13:04;;;;;;;2.90;1.43;;;10.60;69.80;;;;;;5007058;28;20498;-42
2021/03/12 12:15:33;;;;;;;3.20;2.20;;;10.70;71.70;;;;;;5024494;28;20457;-42
2021/03/12 12:18:00;;;;;;;4.13;1.57;;;10.80;69.70;;;;;;5023979;28;20455;-42
2021/03/12 12:20:29;;;;;;;4.40;1.43;;;10.90;68.30;;;;;;5005091;28;20882;-42
2021/03/12 12:22:55;;;;;;;4.53;1.73;;;11.00;68.50;;;;;;5005247;28;20460;-42
2021/03/12 12:25:21;;;;;;;9.53;2.10;;;11.20;68.10;;;;;;5039666;28;20455;-42
2021/03/12 12:27:55;;;;;;;4.77;1.90;;;11.40;67.00;;;;;;5027421;28;20486;-42
2021/03/12 12:30:22;;;;;;;5.30;2.43;;;11.50;63.00;;;;;;5025094;28;20578;-42
2021/03/12 12:32:48;;;;;;;2.90;1.53;;;11.70;62.60;;;;;;5024342;28;20542;-42
2021/03/12 12:35:15;;;;;;;10.97;1.80;;;11.80;62.50;;;;;;5019589;28;20456;-42
2021/03/12 12:37:48;;;;;;;5.97;1.60;;;11.80;62.10;;;;;;5024069;28;20924;-42
2021/03/12 12:40:15;;;;;;;4.90;1.70;;;11.90;62.20;;;;;;5019138;28;20948;-42
2021/03/12 12:42:41;;;;;;;3.80;1.67;;;12.00;62.60;;;;;;5025048;28;20459;-42
2021/03/12 12:45:08;;;;;;;8.27;2.63;;;12.10;61.50;;;;;;5006534;28;20499;-42
2021/03/12 12:47:35;;;;;;;4.53;1.80;;;12.20;61.20;;;;;;5023589;28;20518;-42
2021/03/12 12:50:03;;;;;;;2.23;1.50;;;12.10;60.80;;;;;;5024013;28;20487;-42
2021/03/12 12:52:33;;;;;;;5.93;1.70;;;12.00;60.30;;;;;;5008779;28;20577;-42
2021/03/12 12:55:03;;;;;;;4.90;1.20;;;11.80;60.50;;;;;;5007512;28;20451;-42
2021/03/12 12:57:30;;;;;;;7.40;2.10;;;11.70;61.10;;;;;;5022712;28;21011;-42
2021/03/12 13:00:04;;;;;;;4.43;1.60;;;11.60;62.30;;;;;;5026162;28;20447;-41
2021/03/12 13:02:31;;;;;;;4.80;2.53;;;11.60;60.40;;;;;;5033667;28;20468;-42
2021/03/12 13:04:57;;;;;;;4.40;2.33;;;11.60;61.50;;;;;;5026764;28;20452;-42
2021/03/12 13:07:27;;;;;;;4.10;1.90;;;11.60;61.40;;;;;;5007791;28;20450;-42
2021/03/12 13:09:59;;;;;;;10.03;3.53;;;11.60;60.90;;;;;;5027209;28;20916;-42
2021/03/12 13:12:26;;;;;;;7.67;1.60;;;11.50;61.10;;;;;;5022664;28;20578;-42